createdAt,value
2019-03-18T00:00:28.790Z,47.60
2019-03-18T00:10:34.604Z,47.60
2019-03-18T00:20:39.942Z,47.70
2019-03-18T00:30:45.350Z,47.70
2019-03-18T00:40:50.690Z,47.80
2019-03-18T00:50:56.077Z,47.70
2019-03-18T01:01:01.385Z,47.60
2019-03-18T01:11:06.773Z,47.70
2019-03-18T01:21:12.085Z,47.70
2019-03-18T01:31:17.415Z,47.70
2019-03-18T01:41:22.821Z,47.70
2019-03-18T01:51:28.212Z,47.70
2019-03-18T02:01:33.638Z,47.60
2019-03-18T02:11:40.561Z,47.70
2019-03-18T02:21:45.974Z,47.70
2019-03-18T02:31:53.578Z,47.60
2019-03-18T02:41:59.105Z,47.60
2019-03-18T02:52:04.523Z,47.60
2019-03-18T03:02:09.933Z,47.60
2019-03-18T03:12:15.259Z,47.70
2019-03-18T03:22:20.614Z,47.70
2019-03-18T03:32:25.933Z,47.60
2019-03-18T03:42:31.397Z,47.70
2019-03-18T03:52:36.786Z,47.70
2019-03-18T04:02:42.247Z,48.40
2019-03-18T04:12:47.582Z,47.70
2019-03-18T04:22:53.004Z,47.70
2019-03-18T04:32:59.472Z,47.70
2019-03-18T04:43:04.787Z,47.70
2019-03-18T04:53:11.378Z,47.70
2019-03-18T05:03:16.695Z,47.70
2019-03-18T05:13:22.272Z,47.70
2019-03-18T05:23:27.659Z,47.40
2019-03-18T05:33:33.026Z,47.60
2019-03-18T05:43:38.455Z,47.70
2019-03-18T05:53:44.147Z,47.60
2019-03-18T06:03:49.539Z,47.60
2019-03-18T06:13:56.569Z,47.70
2019-03-18T06:24:02.172Z,47.70
2019-03-18T06:34:07.481Z,47.70
2019-03-18T06:44:12.807Z,47.80
2019-03-18T06:54:18.175Z,47.70
2019-03-18T07:04:23.614Z,47.70
2019-03-18T07:14:29.003Z,47.80
2019-03-18T07:24:34.372Z,47.70
2019-03-18T07:34:39.756Z,47.80
2019-03-18T07:44:45.076Z,47.80
2019-03-18T07:54:50.619Z,47.80
2019-03-18T08:04:55.949Z,47.80
2019-03-18T08:15:01.400Z,47.70
2019-03-18T08:25:06.913Z,47.80
2019-03-18T08:35:12.399Z,47.70
2019-03-18T08:45:17.816Z,47.70
2019-03-18T08:55:23.130Z,47.70
2019-03-18T09:05:28.603Z,47.80
2019-03-18T09:15:34.168Z,47.80
2019-03-18T09:25:39.582Z,47.80
2019-03-18T09:35:44.993Z,47.70
2019-03-18T09:45:50.303Z,47.70
2019-03-18T09:55:55.694Z,47.70
2019-03-18T10:06:00.997Z,47.80
2019-03-18T10:16:06.326Z,47.70
2019-03-18T10:26:11.638Z,47.70
2019-03-18T10:36:16.944Z,47.60
2019-03-18T10:46:22.481Z,47.70
2019-03-18T10:56:27.767Z,47.90
2019-03-18T11:06:33.184Z,47.70
2019-03-18T11:16:38.561Z,47.70
2019-03-18T11:26:45.001Z,47.60
2019-03-18T11:36:50.413Z,47.60
2019-03-18T11:46:55.937Z,47.70
2019-03-18T11:57:01.299Z,47.70
2019-03-18T12:07:06.673Z,47.70
2019-03-18T12:17:14.002Z,47.70
2019-03-18T12:27:19.322Z,47.70
2019-03-18T12:37:24.712Z,47.70
2019-03-18T12:47:30.175Z,47.70
2019-03-18T12:57:35.521Z,47.70
2019-03-18T13:07:41.106Z,47.70
2019-03-18T13:17:46.526Z,47.70
2019-03-18T13:27:51.850Z,47.70
2019-03-18T13:37:57.188Z,47.80
2019-03-18T13:48:03.948Z,47.70
2019-03-18T13:58:09.480Z,47.70
2019-03-18T14:08:14.934Z,47.70
2019-03-18T14:18:20.385Z,47.60
2019-03-18T14:28:25.927Z,47.80
2019-03-18T14:38:31.248Z,47.80
2019-03-18T14:48:36.606Z,47.80
2019-03-18T14:58:41.913Z,47.80
2019-03-18T15:08:47.331Z,47.70
2019-03-18T15:18:52.708Z,47.70
2019-03-18T15:28:58.182Z,47.80
2019-03-18T15:39:05.738Z,47.70
2019-03-18T15:49:12.383Z,48.40
2019-03-18T15:59:17.753Z,47.90
2019-03-18T16:09:23.188Z,47.80
2019-03-18T16:19:28.651Z,47.90
2019-03-18T16:29:34.094Z,47.80
2019-03-18T16:39:39.418Z,47.80
2019-03-18T16:49:44.864Z,47.80
2019-03-18T16:59:50.214Z,47.80
2019-03-18T17:09:55.596Z,47.80
2019-03-18T17:20:01.163Z,47.80
2019-03-18T17:30:09.817Z,48.50
2019-03-18T17:40:15.349Z,47.80
2019-03-18T17:50:21.032Z,47.70
2019-03-18T18:00:32.892Z,47.80
2019-03-18T18:10:38.460Z,47.80
2019-03-18T18:20:43.968Z,47.90
2019-03-18T18:30:49.279Z,47.50
2019-03-18T18:40:54.799Z,47.80
2019-03-18T18:51:00.265Z,47.80
2019-03-18T19:01:05.588Z,47.90
2019-03-18T19:11:10.891Z,47.80
2019-03-18T19:21:16.229Z,48.00
2019-03-18T19:31:21.678Z,47.90
2019-03-18T19:41:27.023Z,47.90
2019-03-18T19:51:32.371Z,48.00
2019-03-18T20:01:37.915Z,48.00
2019-03-18T20:11:43.230Z,48.00
2019-03-18T20:21:48.582Z,48.00
2019-03-18T20:31:53.965Z,48.00
2019-03-18T20:41:59.589Z,48.00
2019-03-18T20:52:12.590Z,48.10
2019-03-18T21:02:12.151Z,48.10
2019-03-18T21:12:17.471Z,48.10
2019-03-18T21:22:22.975Z,48.10
2019-03-18T21:32:30.406Z,48.70
2019-03-18T21:42:35.837Z,48.10
2019-03-18T21:52:41.146Z,48.10
2019-03-18T22:02:46.466Z,48.10
2019-03-18T22:12:51.790Z,48.10
2019-03-18T22:22:57.249Z,48.20
2019-03-18T22:33:02.574Z,48.10
2019-03-18T22:43:08.048Z,48.20
2019-03-18T22:53:13.548Z,48.20
2019-03-18T23:03:19.037Z,48.20
2019-03-18T23:13:25.310Z,48.20
2019-03-18T23:23:30.755Z,48.10
2019-03-18T23:33:36.049Z,48.20
2019-03-18T23:43:41.361Z,48.20
2019-03-18T23:53:46.697Z,48.10
